Time;durP1;ratioP1;P1;durP2;ratioP2;P2;SDS_P1;SDS_P2;PMS_P1;PMS_P2;Temp;Humidity;BMP_temperature;BMP_pressure;BME280_temperature;BME280_humidity;BME280_pressure;Samples;Min_cycle;Max_cycle;Signal;HPM_P1;HPM_P2
2022/01/05 00:00:04;;;;;;;2.42;2.17;;;;;;;2.16;100.00;94413.31;1010132;29;20633;-64
2022/01/05 00:00:35;;;;;;;4.25;2.13;;;;;;;2.14;100.00;94410.19;1006655;29;20507;-64
2022/01/05 00:01:05;;;;;;;2.50;2.05;;;;;;;2.13;100.00;94414.56;1014644;29;20260;-64
2022/01/05 00:01:35;;;;;;;1.23;1.13;;;;;;;2.05;100.00;94417.59;1018419;29;20091;-62
2022/01/05 00:02:06;;;;;;;5.95;1.40;;;;;;;2.07;100.00;94418.13;1006688;29;20036;-65
2022/01/05 00:02:36;;;;;;;1.48;1.35;;;;;;;2.04;100.00;94417.81;1007316;29;20040;-64
2022/01/05 00:03:07;;;;;;;2.95;1.65;;;;;;;2.05;100.00;94419.41;1010555;29;20057;-65
2022/01/05 00:03:37;;;;;;;1.65;1.55;;;;;;;2.05;100.00;94422.78;1014612;29;20024;-65
2022/01/05 00:04:08;;;;;;;1.75;1.60;;;;;;;2.04;100.00;94423.78;1014700;29;20036;-64
2022/01/05 00:04:38;;;;;;;1.50;1.15;;;;;;;1.98;100.00;94429.94;1010613;29;20037;-66
2022/01/05 00:05:09;;;;;;;1.35;1.15;;;;;;;1.92;100.00;94428.31;1011685;29;20533;-64
2022/01/05 00:05:39;;;;;;;2.38;1.10;;;;;;;1.93;100.00;94432.44;1010680;29;20075;-63
2022/01/05 00:06:10;;;;;;;1.15;0.90;;;;;;;1.89;100.00;94431.38;1010944;29;20613;-65
2022/01/05 00:06:40;;;;;;;1.67;1.33;;;;;;;1.82;100.00;94412.66;1018507;29;20024;-62
2022/01/05 00:07:12;;;;;;;1.25;1.13;;;;;;;1.96;100.00;94437.16;1018101;29;20125;-62
2022/01/05 00:07:42;;;;;;;1.40;0.95;;;;;;;1.87;100.00;94417.88;1018337;29;20143;-64
2022/01/05 00:08:14;;;;;;;0.93;0.70;;;;;;;1.98;100.00;94434.31;1018473;29;20275;-64
2022/01/05 00:08:44;;;;;;;1.00;0.80;;;;;;;1.96;100.00;94436.38;1013137;29;20032;-64
2022/01/05 00:09:15;;;;;;;1.58;1.00;;;;;;;1.81;100.00;94421.44;1010853;29;20279;-64
2022/01/05 00:09:45;;;;;;;0.93;0.90;;;;;;;1.89;100.00;94421.03;1014452;29;20035;-62
2022/01/05 00:10:16;;;;;;;1.33;1.02;;;;;;;1.87;100.00;94423.06;1013974;29;20414;-62
2022/01/05 00:10:46;;;;;;;0.90;0.75;;;;;;;1.87;100.00;94423.06;1014766;29;20104;-64
2022/01/05 00:11:16;;;;;;;1.73;1.08;;;;;;;1.88;100.00;94422.06;1014624;29;20035;-64
2022/01/05 00:11:47;;;;;;;1.15;1.02;;;;;;;1.89;100.00;94426.19;1014618;29;20032;-64
2022/01/05 00:12:17;;;;;;;1.27;1.00;;;;;;;1.84;100.00;94420.94;1018626;29;20028;-65
2022/01/05 00:12:48;;;;;;;1.38;0.98;;;;;;;1.85;100.00;94414.78;1018642;29;20034;-64
2022/01/05 00:13:19;;;;;;;1.40;1.30;;;;;;;1.82;100.00;94421.19;1018764;29;20016;-65
2022/01/05 00:13:49;;;;;;;1.67;1.33;;;;;;;1.77;100.00;94402.25;1021976;28;20019;-64
2022/01/05 00:14:19;;;;;;;1.52;1.20;;;;;;;1.83;100.00;94421.97;1018653;29;20035;-65
2022/01/05 00:14:50;;;;;;;1.45;1.30;;;;;;;1.85;100.00;94430.28;1018775;29;20322;-66
2022/01/05 00:15:21;;;;;;;1.90;1.80;;;;;;;1.82;100.00;94423.00;1010584;29;20085;-64
2022/01/05 00:15:51;;;;;;;1.63;1.50;;;;;;;1.85;100.00;94430.28;1010630;29;20475;-65
2022/01/05 00:16:22;;;;;;;1.80;1.60;;;;;;;1.82;100.00;94430.78;1015018;29;20136;-64
2022/01/05 00:16:52;;;;;;;2.13;1.55;;;;;;;1.80;100.00;94433.56;1014778;29;20039;-65
2022/01/05 00:17:22;;;;;;;1.85;1.70;;;;;;;1.74;100.00;94431.94;1020838;29;20040;-64
2022/01/05 00:17:53;;;;;;;2.88;1.30;;;;;;;1.62;100.00;94423.53;1018245;29;20332;-64
2022/01/05 00:18:24;;;;;;;1.45;1.25;;;;;;;1.69;100.00;94420.78;1018559;29;20028;-65
2022/01/05 00:18:54;;;;;;;1.63;1.40;;;;;;;1.68;100.00;94426.94;1018355;29;20028;-65
2022/01/05 00:19:25;;;;;;;1.52;1.38;;;;;;;1.63;100.00;94423.28;1018553;29;20051;-64
2022/01/05 00:19:55;;;;;;;1.95;1.40;;;;;;;1.65;100.00;94426.41;1018119;29;20031;-64
2022/01/05 00:20:26;;;;;;;1.75;1.38;;;;;;;1.63;100.00;94422.50;1014573;29;20028;-65
2022/01/05 00:20:57;;;;;;;1.40;1.25;;;;;;;1.62;100.00;94421.72;1018582;29;20106;-66
2022/01/05 00:21:28;;;;;;;1.60;1.45;;;;;;;1.60;100.00;94412.63;1018798;29;20047;-66
2022/01/05 00:21:58;;;;;;;2.28;1.50;;;;;;;1.65;100.00;94423.06;1020918;29;20282;-61
2022/01/05 00:22:28;;;;;;;2.33;1.90;;;;;;;1.52;100.00;94411.25;1019074;29;20099;-64
2022/01/05 00:22:59;;;;;;;1.77;1.42;;;;;;;1.61;100.00;94424.53;1018787;29;20039;-64
2022/01/05 00:23:30;;;;;;;1.88;1.40;;;;;;;1.56;100.00;94412.34;1018287;29;20040;-63
2022/01/05 00:24:00;;;;;;;4.18;1.88;;;;;;;1.62;100.00;94416.56;1018256;29;20498;-64
2022/01/05 00:24:30;;;;;;;1.52;1.42;;;;;;;1.61;100.00;94422.75;1018815;29;20560;-65
2022/01/05 00:25:01;;;;;;;3.63;1.70;;;;;;;1.62;100.00;94416.56;1022253;28;20039;-62
2022/01/05 00:25:31;;;;;;;1.70;1.60;;;;;;;1.55;100.00;94410.78;1018693;29;20376;-65
2022/01/05 00:26:03;;;;;;;1.90;1.70;;;;;;;1.57;100.00;94413.09;1014481;29;20035;-66
2022/01/05 00:26:34;;;;;;;2.56;1.40;;;;;;;1.53;100.00;94412.03;1006697;29;20033;-65
2022/01/05 00:27:04;;;;;;;1.58;1.48;;;;;;;1.52;100.00;94421.59;1006844;29;20590;-65
2022/01/05 00:27:35;;;;;;;5.65;1.55;;;;;;;1.54;100.00;94414.41;1010328;29;20031;-64
2022/01/05 00:28:05;;;;;;;3.28;1.48;;;;;;;1.52;100.00;94416.44;1010991;29;20037;-63
2022/01/05 00:28:36;;;;;;;2.08;1.73;;;;;;;1.49;100.00;94406.56;1018386;29;20031;-64
2022/01/05 00:29:06;;;;;;;2.00;1.67;;;;;;;1.49;100.00;94409.16;1014543;29;20047;-65
2022/01/05 00:29:37;;;;;;;2.30;1.77;;;;;;;1.48;100.00;94404.22;1018709;29;20031;-65
2022/01/05 00:30:08;;;;;;;1.85;1.42;;;;;;;1.47;100.00;94408.59;1017211;29;20331;-62
2022/01/05 00:30:38;;;;;;;3.24;1.98;;;;;;;1.46;100.00;94406.25;1014375;29;20028;-64
2022/01/05 00:31:09;;;;;;;1.48;1.38;;;;;;;1.45;100.00;94402.88;1014806;29;20029;-64
2022/01/05 00:31:40;;;;;;;2.60;2.00;;;;;;;1.46;100.00;94412.19;1014728;29;20064;-65
2022/01/05 00:32:11;;;;;;;2.90;2.12;;;;;;;1.48;100.00;94407.59;1011712;29;20029;-64
2022/01/05 00:32:41;;;;;;;3.22;2.30;;;;;;;1.47;100.00;94400.84;1013854;29;20032;-64
2022/01/05 00:33:13;;;;;;;2.00;1.80;;;;;;;1.44;100.00;94403.88;1018484;29;20083;-64
2022/01/05 00:33:43;;;;;;;4.18;1.80;;;;;;;1.44;100.00;94400.53;1014492;29;20360;-62
2022/01/05 00:34:14;;;;;;;3.08;2.30;;;;;;;1.49;100.00;94408.38;1018454;29;20039;-65
2022/01/05 00:34:44;;;;;;;2.08;1.73;;;;;;;1.48;100.00;94405.00;1022139;29;20027;-65
2022/01/05 00:35:14;;;;;;;2.85;2.17;;;;;;;1.49;100.00;94411.72;1014551;29;20052;-64
2022/01/05 00:35:45;;;;;;;2.50;2.30;;;;;;;1.41;100.00;94400.00;1014517;29;20024;-64
2022/01/05 00:36:15;;;;;;;2.85;2.17;;;;;;;1.48;100.00;94409.41;1018433;29;20035;-64
2022/01/05 00:36:46;;;;;;;2.15;1.95;;;;;;;1.51;100.00;94408.88;1014512;29;20125;-65
2022/01/05 00:37:16;;;;;;;2.53;2.17;;;;;;;1.51;100.00;94408.88;1018348;29;20031;-64
2022/01/05 00:37:47;;;;;;;3.05;2.45;;;;;;;1.55;100.00;94408.19;1010812;29;20033;-66
2022/01/05 00:38:17;;;;;;;3.63;2.40;;;;;;;1.52;100.00;94400.13;1017943;29;20024;-65
2022/01/05 00:38:48;;;;;;;2.75;2.38;;;;;;;1.47;100.00;94392.31;1010716;29;20020;-64
2022/01/05 00:39:18;;;;;;;3.05;2.40;;;;;;;1.55;100.00;94410.78;1007030;29;20060;-64
2022/01/05 00:39:48;;;;;;;3.67;2.30;;;;;;;1.56;100.00;94401.22;1009356;29;20021;-65
2022/01/05 00:40:19;;;;;;;2.80;2.40;;;;;;;1.51;100.00;94399.34;1008956;29;20579;-63
2022/01/05 00:40:49;;;;;;;2.53;2.33;;;;;;;1.55;100.00;94403.03;1014602;29;20348;-64
2022/01/05 00:41:20;;;;;;;3.15;2.45;;;;;;;1.60;100.00;94397.13;1018585;29;20406;-64
2022/01/05 00:41:50;;;;;;;2.72;2.17;;;;;;;1.58;100.00;94399.97;1017832;29;20082;-65
2022/01/05 00:42:21;;;;;;;4.07;2.75;;;;;;;1.58;100.00;94392.22;1014893;29;20491;-65
2022/01/05 00:42:51;;;;;;;4.05;2.83;;;;;;;1.64;100.00;94398.22;1018338;29;20413;-64
2022/01/05 00:43:21;;;;;;;3.15;2.70;;;;;;;1.61;100.00;94396.09;1014626;29;20260;-60
2022/01/05 00:43:52;;;;;;;2.92;2.38;;;;;;;1.58;100.00;94394.00;1014861;29;20273;-64
2022/01/05 00:44:24;;;;;;;2.95;2.47;;;;;;;1.55;100.00;94389.31;1018448;29;20031;-66
2022/01/05 00:44:54;;;;;;;3.42;2.46;;;;;;;1.57;100.00;94397.59;1022223;29;20103;-64
2022/01/05 00:45:25;;;;;;;3.10;2.60;;;;;;;1.55;100.00;94392.69;1019274;29;20489;-66
2022/01/05 00:45:56;;;;;;;4.03;2.67;;;;;;;1.60;100.00;94397.91;1018594;29;20078;-65
2022/01/05 00:46:26;;;;;;;4.07;2.75;;;;;;;1.61;100.00;94396.91;1018568;29;20039;-64
2022/01/05 00:46:56;;;;;;;3.13;2.70;;;;;;;1.64;100.00;94393.84;1015800;29;20873;-64
2022/01/05 00:47:27;;;;;;;2.92;2.58;;;;;;;1.65;100.00;94392.03;1018579;29;20403;-65
2022/01/05 00:47:57;;;;;;;2.22;1.85;;;;;;;1.64;100.00;94393.84;1022294;29;20062;-64
2022/01/05 00:48:29;;;;;;;2.60;2.13;;;;;;;1.62;100.00;94385.53;1018148;29;20059;-62
2022/01/05 00:49:00;;;;;;;2.48;2.28;;;;;;;1.56;100.00;94381.31;1006685;29;20084;-63
2022/01/05 00:49:30;;;;;;;3.95;2.60;;;;;;;1.61;100.00;94381.41;1006814;29;20097;-64
2022/01/05 00:50:01;;;;;;;2.53;2.30;;;;;;;1.59;100.00;94380.06;1006712;29;20051;-64
2022/01/05 00:50:31;;;;;;;2.38;2.17;;;;;;;1.61;100.00;94383.97;1010208;29;20581;-64
2022/01/05 00:51:06;;;;;;;4.68;2.65;;;;;;;1.62;100.00;94382.94;1017972;29;20461;-64
2022/01/05 00:51:37;;;;;;;2.60;2.30;;;;;;;1.58;100.00;94374.13;1010837;29;20042;-65
2022/01/05 00:52:07;;;;;;;2.67;2.40;;;;;;;1.52;100.00;94367.31;1014196;29;20551;-64
2022/01/05 00:52:37;;;;;;;2.78;2.47;;;;;;;1.53;100.00;94376.63;1014510;29;20084;-65
2022/01/05 00:53:08;;;;;;;2.90;2.53;;;;;;;1.56;100.00;94377.94;1018340;29;20032;-64
2022/01/05 00:53:39;;;;;;;2.83;2.40;;;;;;;1.57;100.00;94387.25;1010444;29;20117;-64
2022/01/05 00:54:09;;;;;;;3.25;2.45;;;;;;;1.60;100.00;94379.81;1010245;29;20037;-64
2022/01/05 00:54:40;;;;;;;3.53;2.50;;;;;;;1.59;100.00;94380.06;1009958;29;20209;-64
2022/01/05 00:55:11;;;;;;;2.90;2.60;;;;;;;1.57;100.00;94382.09;1014450;29;20309;-63
2022/01/05 00:55:41;;;;;;;2.90;2.45;;;;;;;1.59;100.00;94386.00;1018720;29;20130;-64
2022/01/05 00:56:11;;;;;;;3.72;2.53;;;;;;;1.60;100.00;94384.97;1022029;28;20520;-64
2022/01/05 00:56:42;;;;;;;2.80;2.38;;;;;;;1.59;100.00;94385.22;1022060;28;20027;-64
2022/01/05 00:57:12;;;;;;;3.97;2.42;;;;;;;1.57;100.00;94382.88;1018104;29;20026;-64
2022/01/05 00:57:43;;;;;;;4.60;2.55;;;;;;;1.58;100.00;94383.69;1010363;29;20020;-64
2022/01/05 00:58:13;;;;;;;3.05;2.60;;;;;;;1.60;100.00;94382.41;1010485;29;20078;-64
2022/01/05 00:58:43;;;;;;;3.97;3.00;;;;;;;1.52;100.00;94375.06;1018531;29;20061;-64
2022/01/05 00:59:14;;;;;;;3.22;2.60;;;;;;;1.60;100.00;94390.16;1021455;29;20082;-64
2022/01/05 00:59:44;;;;;;;4.53;2.67;;;;;;;1.61;100.00;94386.56;1018304;29;20092;-64
2022/01/05 01:00:15;;;;;;;6.07;3.45;;;;;;;1.64;100.00;94386.09;1013778;29;20451;-64
2022/01/05 01:00:45;;;;;;;3.88;2.90;;;;;;;1.44;100.00;94359.19;1010685;29;20036;-64
2022/01/05 01:01:16;;;;;;;4.55;3.15;;;;;;;1.59;100.00;94391.19;1003548;29;20156;-64
2022/01/05 01:01:46;;;;;;;3.17;2.65;;;;;;;1.60;100.00;94387.56;1006403;29;20327;-66
2022/01/05 01:02:17;;;;;;;2.83;2.38;;;;;;;1.61;100.00;94394.31;1010521;29;20037;-64
2022/01/05 01:02:47;;;;;;;3.55;2.90;;;;;;;1.60;100.00;94392.72;1003214;29;20055;-64
2022/01/05 01:03:18;;;;;;;3.88;2.97;;;;;;;1.61;100.00;94388.34;1010913;29;20558;-64
2022/01/05 01:03:48;;;;;;;3.67;2.83;;;;;;;1.61;100.00;94383.97;1018276;29;20116;-63
2022/01/05 01:04:18;;;;;;;3.20;2.90;;;;;;;1.60;100.00;94391.97;1009883;29;20032;-66
2022/01/05 01:04:49;;;;;;;3.88;2.65;;;;;;;1.58;100.00;94392.22;1011349;29;20024;-61
2022/01/05 01:05:19;;;;;;;3.92;3.30;;;;;;;1.58;100.00;94391.44;1014720;29;20055;-64
2022/01/05 01:05:50;;;;;;;4.00;2.70;;;;;;;1.54;100.00;94393.72;1018389;29;20031;-62
2022/01/05 01:06:20;;;;;;;3.33;2.90;;;;;;;1.57;100.00;94395.00;1016221;29;20548;-64
2022/01/05 01:06:51;;;;;;;3.53;3.05;;;;;;;1.62;100.00;94397.69;1013808;29;20079;-64
2022/01/05 01:07:21;;;;;;;2.90;2.40;;;;;;;1.61;100.00;94389.16;1010400;29;20080;-64
2022/01/05 01:07:52;;;;;;;2.97;2.60;;;;;;;1.55;100.00;94394.50;1008174;29;20040;-63
2022/01/05 01:08:22;;;;;;;5.00;3.33;;;;;;;1.54;100.00;94398.06;1008588;29;20032;-64
2022/01/05 01:08:52;;;;;;;3.78;2.90;;;;;;;1.52;100.00;94394.97;1006796;29;20040;-64
2022/01/05 01:09:23;;;;;;;4.10;3.10;;;;;;;1.34;100.00;94368.38;1014597;29;20336;-63
2022/01/05 01:09:53;;;;;;;4.10;3.08;;;;;;;1.48;100.00;94388.72;1013997;29;20020;-64
2022/01/05 01:10:24;;;;;;;4.30;2.90;;;;;;;1.59;100.00;94395.56;1006276;29;20057;-65
2022/01/05 01:10:54;;;;;;;3.60;2.90;;;;;;;1.48;100.00;94384.31;1006655;29;20427;-64
2022/01/05 01:11:25;;;;;;;4.47;3.42;;;;;;;1.60;100.00;94402.28;1010293;29;20059;-64
2022/01/05 01:11:55;;;;;;;4.22;3.50;;;;;;;1.55;100.00;94400.44;1010242;29;20531;-65
2022/01/05 01:12:26;;;;;;;3.95;3.10;;;;;;;1.57;100.00;94400.97;1010524;29;20029;-65
2022/01/05 01:12:56;;;;;;;3.78;2.97;;;;;;;1.50;100.00;94390.03;1002766;29;20053;-64
2022/01/05 01:13:27;;;;;;;4.30;3.35;;;;;;;1.59;100.00;94398.94;1014491;29;20115;-64
2022/01/05 01:13:57;;;;;;;3.95;3.03;;;;;;;1.62;100.00;94401.03;1014282;29;20483;-64
2022/01/05 01:14:27;;;;;;;3.72;3.30;;;;;;;1.56;100.00;94407.16;1014312;29;20016;-62
2022/01/05 01:14:58;;;;;;;4.18;2.70;;;;;;;1.56;100.00;94396.81;1018341;29;20508;-64
2022/01/05 01:15:29;;;;;;;4.88;3.40;;;;;;;1.50;100.00;94397.00;1018452;29;20057;-64
2022/01/05 01:15:59;;;;;;;4.65;3.50;;;;;;;1.51;100.00;94390.81;1022157;29;20032;-63
2022/01/05 01:16:30;;;;;;;5.13;3.53;;;;;;;1.58;100.00;94409.53;1022367;29;20034;-65
2022/01/05 01:17:00;;;;;;;5.07;3.28;;;;;;;1.59;100.00;94406.69;1018090;29;20457;-63
2022/01/05 01:17:30;;;;;;;5.05;3.85;;;;;;;1.61;100.00;94404.66;1010086;29;20368;-64
2022/01/05 01:18:01;;;;;;;5.65;3.92;;;;;;;1.64;100.00;94408.53;1018045;29;20482;-64
2022/01/05 01:18:33;;;;;;;4.15;3.25;;;;;;;1.65;100.00;94415.31;1017724;29;20581;-63
2022/01/05 01:19:03;;;;;;;4.76;3.44;;;;;;;1.69;100.00;94413.78;1020742;29;20048;-63
2022/01/05 01:19:34;;;;;;;5.68;3.85;;;;;;;1.65;100.00;94413.50;1016067;29;20028;-65
2022/01/05 01:20:04;;;;;;;6.43;3.60;;;;;;;1.56;100.00;94402.00;1016098;29;20063;-62
2022/01/05 01:20:35;;;;;;;4.57;3.35;;;;;;;1.47;100.00;94385.31;1018460;29;20398;-63
2022/01/05 01:21:05;;;;;;;3.78;3.03;;;;;;;1.60;100.00;94418.59;1014680;29;20447;-63
2022/01/05 01:21:36;;;;;;;4.95;3.65;;;;;;;1.61;100.00;94415.00;1014595;29;20129;-65
2022/01/05 01:22:06;;;;;;;4.28;3.17;;;;;;;1.54;100.00;94404.06;1005645;29;20456;-61
2022/01/05 01:22:37;;;;;;;4.50;3.40;;;;;;;1.66;100.00;94416.84;1010483;29;20142;-63
2022/01/05 01:23:07;;;;;;;3.70;3.10;;;;;;;1.58;100.00;94405.13;1010782;29;20572;-64
2022/01/05 01:23:38;;;;;;;5.47;3.70;;;;;;;1.64;100.00;94411.94;1015930;29;20389;-65
2022/01/05 01:24:08;;;;;;;4.82;3.67;;;;;;;1.66;100.00;94416.84;1018048;29;20029;-64
2022/01/05 01:24:39;;;;;;;5.13;3.60;;;;;;;1.54;100.00;94404.06;1014422;29;20064;-64
2022/01/05 01:25:10;;;;;;;4.28;3.45;;;;;;;1.54;100.00;94404.06;1010568;29;20266;-65
2022/01/05 01:25:41;;;;;;;4.94;3.94;;;;;;;1.67;100.00;94412.47;1014343;29;20280;-64
2022/01/05 01:26:11;;;;;;;6.80;4.20;;;;;;;1.56;100.00;94399.41;1010113;29;20657;-64
2022/01/05 01:26:42;;;;;;;4.20;3.42;;;;;;;1.58;100.00;94399.97;1014487;29;20494;-63
2022/01/05 01:27:12;;;;;;;6.32;3.97;;;;;;;1.64;100.00;94409.34;1018143;29;20501;-64
2022/01/05 01:27:43;;;;;;;7.22;4.38;;;;;;;1.64;100.00;94408.53;1010507;29;20053;-64
2022/01/05 01:28:13;;;;;;;7.25;3.88;;;;;;;1.59;100.00;94398.94;1002426;29;20030;-64
2022/01/05 01:28:44;;;;;;;6.65;4.47;;;;;;;1.73;100.00;94411.50;1004824;29;20029;-63
2022/01/05 01:29:14;;;;;;;5.50;3.72;;;;;;;1.59;100.00;94400.75;1002933;29;20089;-64
2022/01/05 01:29:44;;;;;;;4.57;3.50;;;;;;;1.65;100.00;94408.31;1010723;29;20035;-64
2022/01/05 01:30:15;;;;;;;4.32;3.55;;;;;;;1.60;100.00;94402.28;1021239;29;20449;-63
2022/01/05 01:30:46;;;;;;;5.32;3.70;;;;;;;1.67;100.00;94417.63;1018205;29;20753;-64
2022/01/05 01:31:16;;;;;;;5.60;3.97;;;;;;;1.67;100.00;94404.72;1014540;29;20047;-65
2022/01/05 01:31:47;;;;;;;4.82;3.30;;;;;;;1.59;100.00;94405.91;1014149;29;20779;-64
2022/01/05 01:32:18;;;;;;;5.32;3.80;;;;;;;1.57;100.00;94403.56;1010634;29;20137;-64
2022/01/05 01:32:48;;;;;;;4.97;3.33;;;;;;;1.64;100.00;94413.72;1014608;29;20478;-64
2022/01/05 01:33:19;;;;;;;5.80;3.80;;;;;;;1.60;100.00;94418.59;1014346;29;20085;-66
2022/01/05 01:33:50;;;;;;;5.68;3.97;;;;;;;1.64;100.00;94417.09;1018230;29;20387;-66
2022/01/05 01:34:20;;;;;;;4.97;3.60;;;;;;;1.67;100.00;94415.81;1014428;29;20016;-65
2022/01/05 01:34:50;;;;;;;4.72;3.60;;;;;;;1.67;100.00;94412.47;1010331;29;20260;-61
2022/01/05 01:35:21;;;;;;;5.80;4.10;;;;;;;1.69;100.00;94415.59;1014157;29;20024;-63
2022/01/05 01:35:51;;;;;;;6.47;4.00;;;;;;;1.69;100.00;94415.59;1010720;29;20021;-64
2022/01/05 01:36:22;;;;;;;5.03;3.80;;;;;;;1.71;100.00;94410.97;1018441;29;20026;-64
2022/01/05 01:36:52;;;;;;;6.43;3.88;;;;;;;1.71;100.00;94413.53;1018193;29;20038;-63
2022/01/05 01:37:23;;;;;;;5.45;3.40;;;;;;;1.68;100.00;94420.00;1014256;29;20384;-61
2022/01/05 01:37:54;;;;;;;5.55;4.28;;;;;;;1.70;100.00;94412.00;1014495;29;20449;-65
2022/01/05 01:38:24;;;;;;;3.97;3.35;;;;;;;1.61;100.00;94412.41;1010516;29;20036;-65
2022/01/05 01:38:55;;;;;;;4.55;3.33;;;;;;;1.64;100.00;94417.09;1018152;29;20031;-60
2022/01/05 01:39:25;;;;;;;5.75;3.63;;;;;;;1.70;100.00;94417.16;1022508;29;20054;-63
2022/01/05 01:39:56;;;;;;;5.50;3.67;;;;;;;1.62;100.00;94408.81;1022031;29;20043;-62
2022/01/05 01:40:26;;;;;;;6.50;3.92;;;;;;;1.65;100.00;94410.13;1013455;29;20596;-63
2022/01/05 01:40:57;;;;;;;5.65;3.90;;;;;;;1.70;100.00;94417.94;1014436;29;20036;-63
2022/01/05 01:41:27;;;;;;;4.70;3.72;;;;;;;1.64;100.00;94414.53;1010465;29;20096;-64
2022/01/05 01:41:58;;;;;;;6.18;4.53;;;;;;;1.71;100.00;94413.53;1004869;29;20440;-64
2022/01/05 01:42:28;;;;;;;7.13;3.83;;;;;;;1.68;100.00;94411.44;1006730;29;20035;-64
2022/01/05 01:42:58;;;;;;;6.85;3.72;;;;;;;1.71;100.00;94414.34;1014179;29;20032;-65
2022/01/05 01:43:29;;;;;;;4.47;3.38;;;;;;;1.70;100.00;94414.56;1014096;29;20028;-64
2022/01/05 01:43:59;;;;;;;5.43;3.53;;;;;;;1.72;100.00;94422.88;1014191;29;20039;-64
2022/01/05 01:44:30;;;;;;;4.78;3.53;;;;;;;1.71;100.00;94413.53;1010377;29;20226;-63
2022/01/05 01:45:01;;;;;;;5.53;3.30;;;;;;;1.64;100.00;94404.19;1010494;29;20028;-64
2022/01/05 01:45:32;;;;;;;5.04;3.60;;;;;;;1.71;100.00;94418.72;1013869;29;20028;-63
2022/01/05 01:46:03;;;;;;;5.55;3.63;;;;;;;1.63;100.00;94402.59;1014160;29;20333;-62
2022/01/05 01:46:34;;;;;;;5.52;3.72;;;;;;;1.73;100.00;94416.69;1018344;29;20406;-64
2022/01/05 01:47:04;;;;;;;5.00;3.40;;;;;;;1.70;100.00;94419.75;1017467;29;20036;-62
2022/01/05 01:47:35;;;;;;;5.90;3.95;;;;;;;1.71;100.00;94424.69;1018407;29;20551;-64
2022/01/05 01:48:05;;;;;;;6.00;3.20;;;;;;;1.69;100.00;94420.78;1021766;29;20023;-64
2022/01/05 01:48:36;;;;;;;7.00;3.95;;;;;;;1.69;100.00;94415.59;1017639;29;20030;-64
2022/01/05 01:49:06;;;;;;;6.03;3.53;;;;;;;1.69;100.00;94420.78;1022102;29;20113;-64
2022/01/05 01:49:37;;;;;;;5.07;3.78;;;;;;;1.72;100.00;94422.88;1022015;29;20132;-64
2022/01/05 01:50:08;;;;;;;5.50;3.70;;;;;;;1.71;100.00;94421.31;1021329;29;20035;-61
2022/01/05 01:50:38;;;;;;;5.93;3.83;;;;;;;1.74;100.00;94424.19;1021683;28;20540;-64
2022/01/05 01:51:09;;;;;;;5.13;3.78;;;;;;;1.72;100.00;94426.25;1021815;29;20469;-64
2022/01/05 01:51:39;;;;;;;5.53;3.70;;;;;;;1.73;100.00;94420.03;1022073;29;20019;-63
2022/01/05 01:52:09;;;;;;;6.80;3.72;;;;;;;1.75;100.00;94414.66;1019779;29;20506;-65
2022/01/05 01:52:40;;;;;;;5.20;3.70;;;;;;;1.78;100.00;94414.19;1016439;29;20099;-64
2022/01/05 01:53:11;;;;;;;4.18;3.47;;;;;;;1.65;100.00;94402.38;1014746;29;20426;-65
2022/01/05 01:53:41;;;;;;;7.18;4.05;;;;;;;1.76;100.00;94416.22;1014304;29;20111;-64
2022/01/05 01:54:12;;;;;;;4.88;3.53;;;;;;;1.73;100.00;94411.50;1014953;29;20024;-63
2022/01/05 01:54:43;;;;;;;4.07;3.50;;;;;;;1.74;100.00;94416.44;1013992;29;20475;-62
2022/01/05 01:55:13;;;;;;;4.10;3.50;;;;;;;1.74;100.00;94415.66;1010965;29;20021;-65
2022/01/05 01:55:43;;;;;;;5.15;3.38;;;;;;;1.68;100.00;94411.44;1008785;29;20033;-64
2022/01/05 01:56:14;;;;;;;4.75;3.60;;;;;;;1.74;100.00;94419.00;1008061;29;20061;-64
2022/01/05 01:56:45;;;;;;;4.65;3.13;;;;;;;1.71;100.00;94413.53;1011854;29;20040;-62
2022/01/05 01:57:15;;;;;;;6.80;3.35;;;;;;;1.73;100.00;94425.22;1020101;29;20023;-65
2022/01/05 01:57:46;;;;;;;4.18;3.15;;;;;;;1.72;100.00;94409.97;1019922;29;20032;-62
2022/01/05 01:58:18;;;;;;;4.93;3.40;;;;;;;1.73;100.00;94404.53;1020730;29;20012;-65
2022/01/05 01:58:48;;;;;;;6.47;3.88;;;;;;;1.75;100.00;94412.06;1012611;29;20092;-65
2022/01/05 01:59:19;;;;;;;4.97;3.50;;;;;;;1.71;100.00;94403.19;1021148;29;20280;-65
2022/01/05 01:59:49;;;;;;;5.15;3.60;;;;;;;1.78;100.00;94414.94;1017093;29;20050;-64
2022/01/05 02:00:20;;;;;;;4.68;3.35;;;;;;;1.79;100.00;94423.50;1015770;29;20340;-65
2022/01/05 02:00:50;;;;;;;6.55;3.65;;;;;;;1.77;100.00;94413.38;1015695;29;20031;-64
2022/01/05 02:01:20;;;;;;;6.28;3.40;;;;;;;1.77;100.00;94412.59;1012967;29;20040;-64
2022/01/05 02:01:51;;;;;;;4.57;3.38;;;;;;;1.71;100.00;94404.00;1016391;29;20020;-66
2022/01/05 02:02:21;;;;;;;3.60;3.10;;;;;;;1.73;100.00;94411.50;1016832;29;20019;-65
2022/01/05 02:02:52;;;;;;;4.30;3.40;;;;;;;1.71;100.00;94408.38;1018166;29;20047;-64
2022/01/05 02:03:22;;;;;;;5.22;3.20;;;;;;;1.75;100.00;94415.44;1019984;29;20482;-64
2022/01/05 02:03:53;;;;;;;5.15;3.70;;;;;;;1.73;100.00;94416.69;1015616;29;20024;-64
2022/01/05 02:04:23;;;;;;;4.05;3.25;;;;;;;1.74;100.00;94416.44;1012397;29;20021;-64
2022/01/05 02:04:54;;;;;;;6.13;3.85;;;;;;;1.75;100.00;94417.25;1015148;29;20193;-64
2022/01/05 02:05:25;;;;;;;5.02;3.74;;;;;;;1.71;100.00;94411.75;1011488;29;20053;-63
2022/01/05 02:05:55;;;;;;;4.88;3.38;;;;;;;1.72;100.00;94420.31;1018728;29;20027;-65
2022/01/05 02:06:26;;;;;;;6.47;3.88;;;;;;;1.77;100.00;94420.34;1018824;29;20054;-63
2022/01/05 02:06:56;;;;;;;4.60;3.50;;;;;;;1.76;100.00;94423.97;1007581;29;20029;-64
2022/01/05 02:07:27;;;;;;;5.28;3.75;;;;;;;1.80;100.00;94422.47;1008708;29;20045;-64
2022/01/05 02:07:57;;;;;;;6.55;3.75;;;;;;;1.76;100.00;94419.56;1009521;29;20452;-65
2022/01/05 02:08:28;;;;;;;5.47;4.07;;;;;;;1.79;100.00;94420.91;1015151;29;20028;-64
2022/01/05 02:08:59;;;;;;;4.82;3.83;;;;;;;1.78;100.00;94421.94;1018904;29;20047;-63
2022/01/05 02:09:29;;;;;;;4.47;3.38;;;;;;;1.75;100.00;94419.81;1019174;29;20078;-65
2022/01/05 02:10:00;;;;;;;5.57;3.58;;;;;;;1.70;100.00;94414.56;1022539;29;20019;-65
2022/01/05 02:10:31;;;;;;;4.48;3.44;;;;;;;1.72;100.00;94413.31;1018601;29;20528;-64
2022/01/05 02:11:02;;;;;;;5.53;3.40;;;;;;;1.78;100.00;94422.72;1018877;29;20031;-64
2022/01/05 02:11:33;;;;;;;7.62;3.56;;;;;;;1.75;100.00;94417.25;1010878;29;20084;-64
2022/01/05 02:12:05;;;;;;;5.02;3.70;;;;;;;1.72;100.00;94426.25;1007298;29;20085;-66
2022/01/05 02:12:36;;;;;;;5.58;3.98;;;;;;;1.73;100.00;94419.28;1010847;29;20028;-64
2022/01/05 02:13:06;;;;;;;5.78;4.40;;;;;;;1.71;100.00;94427.28;1014553;29;20028;-64
2022/01/05 02:13:36;;;;;;;6.75;4.57;;;;;;;1.71;100.00;94423.88;1015663;29;20226;-64
2022/01/05 02:14:07;;;;;;;5.57;4.07;;;;;;;1.72;100.00;94421.06;1018773;29;20024;-64
2022/01/05 02:14:37;;;;;;;6.13;4.18;;;;;;;1.76;100.00;94423.97;1017861;29;20032;-64
2022/01/05 02:15:08;;;;;;;6.15;4.25;;;;;;;1.77;100.00;94426.28;1019169;29;20019;-64
2022/01/05 02:15:41;;;;;;;7.70;4.88;;;;;;;1.75;100.00;94420.59;1019051;29;20027;-64
2022/01/05 02:16:17;;;;;;;7.12;4.86;;;;;;;1.74;100.00;94424.19;1015330;29;20496;-64
2022/01/05 02:16:47;;;;;;;6.36;4.38;;;;;;;1.79;100.00;94420.91;1009905;29;20108;-64
2022/01/05 02:17:22;;;;;;;7.05;4.47;;;;;;;1.77;100.00;94422.94;1011121;29;20487;-64
2022/01/05 02:19:09;;;;;;;6.78;3.88;;;;;;;1.75;100.00;94415.44;1020167;29;19925;-65
2022/01/05 02:19:40;;;;;;;5.53;3.63;;;;;;;1.76;100.00;94421.38;1015430;29;20035;-63
2022/01/05 02:20:18;;;;;;;5.40;3.95;;;;;;;1.76;100.00;94418.78;1014248;29;20390;-63
2022/01/05 02:20:49;;;;;;;4.48;3.20;;;;;;;1.70;100.00;94406.81;1014931;29;20039;-64
2022/01/05 02:21:20;;;;;;;5.58;3.80;;;;;;;1.78;100.00;94416.75;1014526;29;20054;-63
2022/01/05 02:21:50;;;;;;;5.53;3.88;;;;;;;1.73;100.00;94416.69;1020346;29;20513;-63
2022/01/05 02:22:20;;;;;;;4.80;3.65;;;;;;;1.75;100.00;94414.66;1018967;29;20036;-64
2022/01/05 02:22:51;;;;;;;5.43;3.45;;;;;;;1.77;100.00;94425.53;1014603;29;20494;-63
2022/01/05 02:23:22;;;;;;;5.95;4.07;;;;;;;1.77;100.00;94428.09;1015031;29;20435;-62
2022/01/05 02:23:52;;;;;;;6.65;4.28;;;;;;;1.77;100.00;94422.94;1011220;29;20509;-64
2022/01/05 02:24:22;;;;;;;4.38;3.17;;;;;;;1.71;100.00;94414.34;1019086;29;20032;-62
2022/01/05 02:24:53;;;;;;;5.43;4.03;;;;;;;1.82;100.00;94423.00;1018710;29;20102;-64
2022/01/05 02:25:23;;;;;;;5.53;3.90;;;;;;;1.82;100.00;94420.44;1018866;29;20127;-63